sensor_id;sensor_type;location;lat;lon;timestamp;temperature;humidity
76785;SHT30;66893;44.316;0.092;2023-02-01T00:01:48;14.86;54.01
76785;SHT30;66893;44.316;0.092;2023-02-01T00:04:14;14.83;54.01
76785;SHT30;66893;44.316;0.092;2023-02-01T00:06:39;14.82;54.02
76785;SHT30;66893;44.316;0.092;2023-02-01T00:09:05;14.82;54.08
76785;SHT30;66893;44.316;0.092;2023-02-01T00:11:31;14.80;54.08
76785;SHT30;66893;44.316;0.092;2023-02-01T00:13:57;14.82;54.09
76785;SHT30;66893;44.316;0.092;2023-02-01T00:16:27;14.80;54.07
76785;SHT30;66893;44.316;0.092;2023-02-01T00:18:59;14.80;54.07
76785;SHT30;66893;44.316;0.092;2023-02-01T00:21:24;14.79;54.11
76785;SHT30;66893;44.316;0.092;2023-02-01T00:23:50;14.80;54.11
76785;SHT30;66893;44.316;0.092;2023-02-01T00:26:32;14.77;54.14
76785;SHT30;66893;44.316;0.092;2023-02-01T00:28:58;14.79;54.15
76785;SHT30;66893;44.316;0.092;2023-02-01T00:31:24;14.77;54.21
76785;SHT30;66893;44.316;0.092;2023-02-01T00:33:49;14.79;54.17
76785;SHT30;66893;44.316;0.092;2023-02-01T00:36:16;14.80;54.20
76785;SHT30;66893;44.316;0.092;2023-02-01T00:38:41;14.77;54.24
76785;SHT30;66893;44.316;0.092;2023-02-01T00:41:11;14.76;54.29
76785;SHT30;66893;44.316;0.092;2023-02-01T00:43:36;14.76;54.25
76785;SHT30;66893;44.316;0.092;2023-02-01T00:46:02;14.77;54.29
76785;SHT30;66893;44.316;0.092;2023-02-01T00:48:28;14.77;54.32
76785;SHT30;66893;44.316;0.092;2023-02-01T00:50:53;14.77;54.36
76785;SHT30;66893;44.316;0.092;2023-02-01T00:53:19;14.75;54.38
76785;SHT30;66893;44.316;0.092;2023-02-01T00:55:48;14.76;54.32
76785;SHT30;66893;44.316;0.092;2023-02-01T00:58:14;14.76;54.37
76785;SHT30;66893;44.316;0.092;2023-02-01T01:00:40;14.76;54.39
76785;SHT30;66893;44.316;0.092;2023-02-01T01:03:05;14.75;54.38
76785;SHT30;66893;44.316;0.092;2023-02-01T01:05:46;14.75;54.43
76785;SHT30;66893;44.316;0.092;2023-02-01T01:08:12;14.75;54.41
76785;SHT30;66893;44.316;0.092;2023-02-01T01:10:38;14.73;54.44
76785;SHT30;66893;44.316;0.092;2023-02-01T01:13:04;14.75;54.45
76785;SHT30;66893;44.316;0.092;2023-02-01T01:15:30;14.76;54.44
76785;SHT30;66893;44.316;0.092;2023-02-01T01:17:55;14.75;54.44
76785;SHT30;66893;44.316;0.092;2023-02-01T01:20:21;14.75;54.49
76785;SHT30;66893;44.316;0.092;2023-02-01T01:22:47;14.75;54.54
76785;SHT30;66893;44.316;0.092;2023-02-01T01:25:13;14.73;54.55
76785;SHT30;66893;44.316;0.092;2023-02-01T01:27:38;14.73;54.54
76785;SHT30;66893;44.316;0.092;2023-02-01T01:30:04;14.72;54.60
76785;SHT30;66893;44.316;0.092;2023-02-01T01:32:30;14.71;54.58
76785;SHT30;66893;44.316;0.092;2023-02-01T01:34:55;14.71;54.61
76785;SHT30;66893;44.316;0.092;2023-02-01T01:37:21;14.72;54.59
76785;SHT30;66893;44.316;0.092;2023-02-01T01:39:46;14.72;54.60
76785;SHT30;66893;44.316;0.092;2023-02-01T01:42:12;14.71;54.64
76785;SHT30;66893;44.316;0.092;2023-02-01T01:45:01;14.69;54.62
76785;SHT30;66893;44.316;0.092;2023-02-01T01:47:43;14.69;54.64
76785;SHT30;66893;44.316;0.092;2023-02-01T01:50:13;14.66;54.65
76785;SHT30;66893;44.316;0.092;2023-02-01T01:52:43;14.66;54.70
76785;SHT30;66893;44.316;0.092;2023-02-01T01:55:09;14.68;54.68
76785;SHT30;66893;44.316;0.092;2023-02-01T01:57:39;14.66;54.71
76785;SHT30;66893;44.316;0.092;2023-02-01T02:00:15;14.65;54.66
76785;SHT30;66893;44.316;0.092;2023-02-01T02:02:44;14.65;54.71
76785;SHT30;66893;44.316;0.092;2023-02-01T02:05:12;14.66;54.67
76785;SHT30;66893;44.316;0.092;2023-02-01T02:07:48;14.66;54.69
76785;SHT30;66893;44.316;0.092;2023-02-01T02:10:16;14.65;54.71
76785;SHT30;66893;44.316;0.092;2023-02-01T02:12:44;14.64;54.72
76785;SHT30;66893;44.316;0.092;2023-02-01T02:15:12;14.62;54.74
76785;SHT30;66893;44.316;0.092;2023-02-01T02:18:00;14.61;54.66
76785;SHT30;66893;44.316;0.092;2023-02-01T02:28:40;14.56;54.71
76785;SHT30;66893;44.316;0.092;2023-02-01T02:42:03;14.51;54.60
76785;SHT30;66893;44.316;0.092;2023-02-01T02:50:25;14.46;54.57
76785;SHT30;66893;44.316;0.092;2023-02-01T02:53:17;14.46;54.54
76785;SHT30;66893;44.316;0.092;2023-02-01T02:56:04;14.41;54.49
76785;SHT30;66893;44.316;0.092;2023-02-01T02:58:50;14.41;54.52
76785;SHT30;66893;44.316;0.092;2023-02-01T03:01:35;14.39;54.45
76785;SHT30;66893;44.316;0.092;2023-02-01T03:04:19;14.37;54.39
76785;SHT30;66893;44.316;0.092;2023-02-01T03:06:46;14.34;54.35
76785;SHT30;66893;44.316;0.092;2023-02-01T03:09:35;14.34;54.35
76785;SHT30;66893;44.316;0.092;2023-02-01T03:12:09;14.34;54.27
76785;SHT30;66893;44.316;0.092;2023-02-01T03:15:03;14.31;54.20
76785;SHT30;66893;44.316;0.092;2023-02-01T03:17:35;14.27;54.17
76785;SHT30;66893;44.316;0.092;2023-02-01T03:20:05;14.27;54.16
76785;SHT30;66893;44.316;0.092;2023-02-01T03:22:32;14.27;54.13
76785;SHT30;66893;44.316;0.092;2023-02-01T03:25:11;14.24;54.10
76785;SHT30;66893;44.316;0.092;2023-02-01T03:28:07;14.21;54.03
76785;SHT30;66893;44.316;0.092;2023-02-01T03:30:38;14.20;53.99
76785;SHT30;66893;44.316;0.092;2023-02-01T03:33:10;14.17;53.97
76785;SHT30;66893;44.316;0.092;2023-02-01T03:39:19;14.14;53.91
76785;SHT30;66893;44.316;0.092;2023-02-01T03:41:52;14.10;53.92
76785;SHT30;66893;44.316;0.092;2023-02-01T03:44:24;14.09;53.92
76785;SHT30;66893;44.316;0.092;2023-02-01T03:46:59;14.04;53.87
76785;SHT30;66893;44.316;0.092;2023-02-01T03:49:35;14.03;53.85
76785;SHT30;66893;44.316;0.092;2023-02-01T03:52:02;14.04;53.85
76785;SHT30;66893;44.316;0.092;2023-02-01T03:54:29;14.04;53.86
76785;SHT30;66893;44.316;0.092;2023-02-01T03:56:59;14.01;53.86
76785;SHT30;66893;44.316;0.092;2023-02-01T03:59:25;14.03;53.82
76785;SHT30;66893;44.316;0.092;2023-02-01T04:01:50;13.97;53.80
76785;SHT30;66893;44.316;0.092;2023-02-01T04:04:16;13.97;53.85
76785;SHT30;66893;44.316;0.092;2023-02-01T04:06:51;13.94;53.78
76785;SHT30;66893;44.316;0.092;2023-02-01T04:09:17;13.94;53.82
76785;SHT30;66893;44.316;0.092;2023-02-01T04:11:43;13.91;53.78
76785;SHT30;66893;44.316;0.092;2023-02-01T04:14:09;13.91;53.81
76785;SHT30;66893;44.316;0.092;2023-02-01T04:16:35;13.94;53.78
76785;SHT30;66893;44.316;0.092;2023-02-01T04:19:01;13.90;53.74
76785;SHT30;66893;44.316;0.092;2023-02-01T04:21:27;13.91;53.76
76785;SHT30;66893;44.316;0.092;2023-02-01T04:23:53;13.90;53.76
76785;SHT30;66893;44.316;0.092;2023-02-01T04:26:19;13.90;53.75
76785;SHT30;66893;44.316;0.092;2023-02-01T04:28:45;13.87;53.75
76785;SHT30;66893;44.316;0.092;2023-02-01T04:31:14;13.87;53.75
76785;SHT30;66893;44.316;0.092;2023-02-01T04:33:40;13.87;53.76
76785;SHT30;66893;44.316;0.092;2023-02-01T04:36:05;13.86;53.71
76785;SHT30;66893;44.316;0.092;2023-02-01T04:38:31;13.86;53.71
76785;SHT30;66893;44.316;0.092;2023-02-01T04:40:57;13.86;53.71
76785;SHT30;66893;44.316;0.092;2023-02-01T04:43:23;13.84;53.72
76785;SHT30;66893;44.316;0.092;2023-02-01T04:45:49;13.86;53.70
76785;SHT30;66893;44.316;0.092;2023-02-01T04:48:19;13.83;53.66
76785;SHT30;66893;44.316;0.092;2023-02-01T04:50:46;13.86;53.66
76785;SHT30;66893;44.316;0.092;2023-02-01T04:53:15;13.82;53.62
76785;SHT30;66893;44.316;0.092;2023-02-01T04:55:41;13.80;53.61
76785;SHT30;66893;44.316;0.092;2023-02-01T04:58:07;13.80;53.56
76785;SHT30;66893;44.316;0.092;2023-02-01T05:00:33;13.80;53.60
76785;SHT30;66893;44.316;0.092;2023-02-01T05:02:58;13.79;53.53
76785;SHT30;66893;44.316;0.092;2023-02-01T05:05:24;13.76;53.51
76785;SHT30;66893;44.316;0.092;2023-02-01T05:07:49;13.76;53.49
76785;SHT30;66893;44.316;0.092;2023-02-01T05:10:15;13.73;53.47
76785;SHT30;66893;44.316;0.092;2023-02-01T05:12:43;13.73;53.44
76785;SHT30;66893;44.316;0.092;2023-02-01T05:15:28;13.70;53.40
76785;SHT30;66893;44.316;0.092;2023-02-01T05:17:53;13.69;53.35
76785;SHT30;66893;44.316;0.092;2023-02-01T05:20:19;13.69;53.31
76785;SHT30;66893;44.316;0.092;2023-02-01T05:22:44;13.67;53.31
76785;SHT30;66893;44.316;0.092;2023-02-01T05:25:10;13.67;53.20
76785;SHT30;66893;44.316;0.092;2023-02-01T05:27:35;13.63;53.23
76785;SHT30;66893;44.316;0.092;2023-02-01T05:30:05;13.61;53.21
76785;SHT30;66893;44.316;0.092;2023-02-01T05:32:31;13.61;53.16
76785;SHT30;66893;44.316;0.092;2023-02-01T05:34:56;13.61;53.12
76785;SHT30;66893;44.316;0.092;2023-02-01T05:37:22;13.58;53.08
76785;SHT30;66893;44.316;0.092;2023-02-01T05:39:47;13.56;53.05
76785;SHT30;66893;44.316;0.092;2023-02-01T05:42:13;13.55;53.05
76785;SHT30;66893;44.316;0.092;2023-02-01T05:44:38;13.52;52.98
76785;SHT30;66893;44.316;0.092;2023-02-01T05:47:04;13.52;52.91
76785;SHT30;66893;44.316;0.092;2023-02-01T05:49:29;13.52;52.86
76785;SHT30;66893;44.316;0.092;2023-02-01T05:51:55;13.51;52.88
76785;SHT30;66893;44.316;0.092;2023-02-01T05:54:20;13.48;52.79
76785;SHT30;66893;44.316;0.092;2023-02-01T05:56:46;13.44;52.77
76785;SHT30;66893;44.316;0.092;2023-02-01T05:59:11;13.44;52.76
76785;SHT30;66893;44.316;0.092;2023-02-01T06:01:37;13.42;52.69
76785;SHT30;66893;44.316;0.092;2023-02-01T06:04:02;13.42;52.63
76785;SHT30;66893;44.316;0.092;2023-02-01T06:06:28;13.42;52.62
76785;SHT30;66893;44.316;0.092;2023-02-01T06:08:53;13.37;52.54
76785;SHT30;66893;44.316;0.092;2023-02-01T06:11:19;13.37;52.53
76785;SHT30;66893;44.316;0.092;2023-02-01T06:13:44;13.37;52.50
76785;SHT30;66893;44.316;0.092;2023-02-01T06:16:09;13.32;52.43
76785;SHT30;66893;44.316;0.092;2023-02-01T06:18:35;13.31;52.38
76785;SHT30;66893;44.316;0.092;2023-02-01T06:21:01;13.28;52.36
76785;SHT30;66893;44.316;0.092;2023-02-01T06:23:30;13.28;52.30
76785;SHT30;66893;44.316;0.092;2023-02-01T06:26:03;13.27;52.26
76785;SHT30;66893;44.316;0.092;2023-02-01T06:28:30;13.25;52.18
76785;SHT30;66893;44.316;0.092;2023-02-01T06:30:55;13.22;52.15
76785;SHT30;66893;44.316;0.092;2023-02-01T06:33:23;13.22;52.12
76785;SHT30;66893;44.316;0.092;2023-02-01T06:35:56;13.18;52.09
76785;SHT30;66893;44.316;0.092;2023-02-01T06:38:22;13.15;52.06
76785;SHT30;66893;44.316;0.092;2023-02-01T06:40:52;13.19;52.03
76785;SHT30;66893;44.316;0.092;2023-02-01T06:43:18;13.15;51.95
76785;SHT30;66893;44.316;0.092;2023-02-01T06:45:43;13.14;51.88
76785;SHT30;66893;44.316;0.092;2023-02-01T06:48:08;13.10;51.92
76785;SHT30;66893;44.316;0.092;2023-02-01T06:50:34;13.11;51.83
76785;SHT30;66893;44.316;0.092;2023-02-01T06:53:00;13.07;51.79
76785;SHT30;66893;44.316;0.092;2023-02-01T06:55:26;13.08;51.77
76785;SHT30;66893;44.316;0.092;2023-02-01T06:57:55;13.04;51.75
76785;SHT30;66893;44.316;0.092;2023-02-01T07:00:22;13.01;51.73
76785;SHT30;66893;44.316;0.092;2023-02-01T07:02:47;13.03;51.69
76785;SHT30;66893;44.316;0.092;2023-02-01T07:05:13;13.00;51.71
76785;SHT30;66893;44.316;0.092;2023-02-01T07:07:38;13.00;51.63
76785;SHT30;66893;44.316;0.092;2023-02-01T07:10:04;12.97;51.62
76785;SHT30;66893;44.316;0.092;2023-02-01T07:12:30;12.97;51.59
76785;SHT30;66893;44.316;0.092;2023-02-01T07:14:55;12.96;51.55
76785;SHT30;66893;44.316;0.092;2023-02-01T07:17:22;12.94;51.60
76785;SHT30;66893;44.316;0.092;2023-02-01T07:19:47;12.96;51.57
76785;SHT30;66893;44.316;0.092;2023-02-01T07:22:13;12.94;51.57
76785;SHT30;66893;44.316;0.092;2023-02-01T07:24:41;12.94;51.50
76785;SHT30;66893;44.316;0.092;2023-02-01T07:27:06;12.94;51.49
76785;SHT30;66893;44.316;0.092;2023-02-01T07:29:31;12.94;51.47
76785;SHT30;66893;44.316;0.092;2023-02-01T07:31:57;12.96;51.47
76785;SHT30;66893;44.316;0.092;2023-02-01T07:34:23;12.94;51.45
76785;SHT30;66893;44.316;0.092;2023-02-01T07:36:48;12.91;51.45
76785;SHT30;66893;44.316;0.092;2023-02-01T07:39:14;12.93;51.44
76785;SHT30;66893;44.316;0.092;2023-02-01T07:41:39;12.91;51.42
76785;SHT30;66893;44.316;0.092;2023-02-01T07:44:05;12.94;51.36
76785;SHT30;66893;44.316;0.092;2023-02-01T07:46:30;12.90;51.38
76785;SHT30;66893;44.316;0.092;2023-02-01T07:48:56;12.90;51.37
76785;SHT30;66893;44.316;0.092;2023-02-01T07:51:21;12.91;51.34
76785;SHT30;66893;44.316;0.092;2023-02-01T07:53:47;12.91;51.29
76785;SHT30;66893;44.316;0.092;2023-02-01T07:56:18;12.91;51.32
76785;SHT30;66893;44.316;0.092;2023-02-01T07:58:48;12.94;51.29
76785;SHT30;66893;44.316;0.092;2023-02-01T08:01:15;12.89;51.11
76785;SHT30;66893;44.316;0.092;2023-02-01T08:03:51;12.75;51.18
76785;SHT30;66893;44.316;0.092;2023-02-01T08:06:18;12.67;51.28
76785;SHT30;66893;44.316;0.092;2023-02-01T08:08:45;12.69;51.36
76785;SHT30;66893;44.316;0.092;2023-02-01T08:11:12;12.69;51.36
76785;SHT30;66893;44.316;0.092;2023-02-01T08:13:38;12.67;51.38
76785;SHT30;66893;44.316;0.092;2023-02-01T08:16:06;12.69;51.43
76785;SHT30;66893;44.316;0.092;2023-02-01T08:18:32;12.70;51.40
76785;SHT30;66893;44.316;0.092;2023-02-01T08:21:06;12.75;51.45
76785;SHT30;66893;44.316;0.092;2023-02-01T08:23:33;12.76;51.43
76785;SHT30;66893;44.316;0.092;2023-02-01T08:26:06;12.75;51.44
76785;SHT30;66893;44.316;0.092;2023-02-01T08:28:32;12.79;51.48
76785;SHT30;66893;44.316;0.092;2023-02-01T08:30:57;12.79;51.49
76785;SHT30;66893;44.316;0.092;2023-02-01T08:33:23;12.82;51.46
76785;SHT30;66893;44.316;0.092;2023-02-01T08:35:48;12.82;51.48
76785;SHT30;66893;44.316;0.092;2023-02-01T08:38:14;12.83;51.52
76785;SHT30;66893;44.316;0.092;2023-02-01T08:40:39;12.86;51.58
76785;SHT30;66893;44.316;0.092;2023-02-01T08:43:07;12.89;51.53
76785;SHT30;66893;44.316;0.092;2023-02-01T08:45:32;12.89;51.54
76785;SHT30;66893;44.316;0.092;2023-02-01T08:47:59;12.90;51.49
76785;SHT30;66893;44.316;0.092;2023-02-01T08:50:25;12.93;51.57
76785;SHT30;66893;44.316;0.092;2023-02-01T08:52:51;12.96;51.59
76785;SHT30;66893;44.316;0.092;2023-02-01T08:55:16;12.96;51.56
76785;SHT30;66893;44.316;0.092;2023-02-01T08:57:42;12.99;51.60
76785;SHT30;66893;44.316;0.092;2023-02-01T09:00:11;13.00;51.57
76785;SHT30;66893;44.316;0.092;2023-02-01T09:02:37;12.99;51.67
76785;SHT30;66893;44.316;0.092;2023-02-01T09:05:04;13.03;51.66
76785;SHT30;66893;44.316;0.092;2023-02-01T09:07:30;13.04;51.72
76785;SHT30;66893;44.316;0.092;2023-02-01T09:09:55;13.07;51.66
76785;SHT30;66893;44.316;0.092;2023-02-01T09:12:22;13.07;51.71
76785;SHT30;66893;44.316;0.092;2023-02-01T09:14:48;13.11;51.74
76785;SHT30;66893;44.316;0.092;2023-02-01T09:17:13;13.12;51.81
76785;SHT30;66893;44.316;0.092;2023-02-01T09:19:39;13.17;51.91
76785;SHT30;66893;44.316;0.092;2023-02-01T09:22:05;13.19;51.99
76785;SHT30;66893;44.316;0.092;2023-02-01T09:24:30;13.19;52.05
76785;SHT30;66893;44.316;0.092;2023-02-01T09:26:56;13.22;52.14
76785;SHT30;66893;44.316;0.092;2023-02-01T09:29:21;13.27;52.20
76785;SHT30;66893;44.316;0.092;2023-02-01T09:31:47;13.31;52.26
76785;SHT30;66893;44.316;0.092;2023-02-01T09:34:12;13.32;52.34
76785;SHT30;66893;44.316;0.092;2023-02-01T09:36:38;13.35;52.43
76785;SHT30;66893;44.316;0.092;2023-02-01T09:39:03;13.38;52.49
76785;SHT30;66893;44.316;0.092;2023-02-01T09:41:51;13.41;52.60
76785;SHT30;66893;44.316;0.092;2023-02-01T09:46:43;13.49;52.56
76785;SHT30;66893;44.316;0.092;2023-02-01T09:49:19;13.46;52.49
76785;SHT30;66893;44.316;0.092;2023-02-01T09:51:49;13.38;52.66
76785;SHT30;66893;44.316;0.092;2023-02-01T09:54:19;13.29;52.68
76785;SHT30;66893;44.316;0.092;2023-02-01T10:01:48;13.01;53.17
76785;SHT30;66893;44.316;0.092;2023-02-01T10:04:15;12.93;53.25
76785;SHT30;66893;44.316;0.092;2023-02-01T10:12:56;12.64;53.75
76785;SHT30;66893;44.316;0.092;2023-02-01T10:18:23;12.53;54.20
76785;SHT30;66893;44.316;0.092;2023-02-01T10:21:13;12.45;54.44
76785;SHT30;66893;44.316;0.092;2023-02-01T10:23:55;12.41;54.42
76785;SHT30;66893;44.316;0.092;2023-02-01T10:26:25;12.42;54.64
76785;SHT30;66893;44.316;0.092;2023-02-01T10:28:56;12.38;54.71
76785;SHT30;66893;44.316;0.092;2023-02-01T10:31:26;12.35;54.98
76785;SHT30;66893;44.316;0.092;2023-02-01T10:34:06;12.36;55.03
76785;SHT30;66893;44.316;0.092;2023-02-01T10:36:35;12.36;55.11
76785;SHT30;66893;44.316;0.092;2023-02-01T10:39:04;12.35;55.05
76785;SHT30;66893;44.316;0.092;2023-02-01T10:41:35;12.36;55.11
76785;SHT30;66893;44.316;0.092;2023-02-01T10:44:03;12.38;55.37
76785;SHT30;66893;44.316;0.092;2023-02-01T10:46:31;12.41;55.19
76785;SHT30;66893;44.316;0.092;2023-02-01T10:49:00;12.42;55.22
76785;SHT30;66893;44.316;0.092;2023-02-01T10:51:30;12.45;55.34
76785;SHT30;66893;44.316;0.092;2023-02-01T10:54:11;12.48;55.31
76785;SHT30;66893;44.316;0.092;2023-02-01T10:56:38;12.48;55.37
76785;SHT30;66893;44.316;0.092;2023-02-01T10:59:06;12.49;55.40
76785;SHT30;66893;44.316;0.092;2023-02-01T11:01:41;12.49;55.41
76785;SHT30;66893;44.316;0.092;2023-02-01T11:04:14;12.53;55.52
76785;SHT30;66893;44.316;0.092;2023-02-01T11:06:43;12.57;55.58
76785;SHT30;66893;44.316;0.092;2023-02-01T11:11:54;12.64;55.50
76785;SHT30;66893;44.316;0.092;2023-02-01T11:17:21;12.73;55.57
76785;SHT30;66893;44.316;0.092;2023-02-01T11:20:04;12.80;55.55
76785;SHT30;66893;44.316;0.092;2023-02-01T11:22:31;12.87;55.33
76785;SHT30;66893;44.316;0.092;2023-02-01T11:24:56;12.90;55.25
76785;SHT30;66893;44.316;0.092;2023-02-01T11:27:24;12.93;55.18
76785;SHT30;66893;44.316;0.092;2023-02-01T11:29:52;12.97;55.28
76785;SHT30;66893;44.316;0.092;2023-02-01T11:32:20;13.01;55.25
76785;SHT30;66893;44.316;0.092;2023-02-01T11:34:52;13.00;55.20
76785;SHT30;66893;44.316;0.092;2023-02-01T11:37:26;13.01;55.42
76785;SHT30;66893;44.316;0.092;2023-02-01T11:39:58;13.06;55.47
76785;SHT30;66893;44.316;0.092;2023-02-01T11:42:24;13.12;55.27
76785;SHT30;66893;44.316;0.092;2023-02-01T11:44:50;13.19;55.27
76785;SHT30;66893;44.316;0.092;2023-02-01T11:47:20;13.21;55.25
76785;SHT30;66893;44.316;0.092;2023-02-01T11:49:47;13.31;55.18
76785;SHT30;66893;44.316;0.092;2023-02-01T11:55:07;13.45;55.03
76785;SHT30;66893;44.316;0.092;2023-02-01T12:05:52;13.89;55.00
76785;SHT30;66893;44.316;0.092;2023-02-01T12:14:02;14.37;54.57
76785;SHT30;66893;44.316;0.092;2023-02-01T12:16:56;14.56;54.35
76785;SHT30;66893;44.316;0.092;2023-02-01T12:27:55;15.00;53.85
76785;SHT30;66893;44.316;0.092;2023-02-01T12:39:31;15.26;53.48
76785;SHT30;66893;44.316;0.092;2023-02-01T12:44:52;15.38;53.35
76785;SHT30;66893;44.316;0.092;2023-02-01T12:49:57;15.49;53.16
76785;SHT30;66893;44.316;0.092;2023-02-01T12:52:32;15.54;53.09
76785;SHT30;66893;44.316;0.092;2023-02-01T12:55:03;15.61;53.01
76785;SHT30;66893;44.316;0.092;2023-02-01T12:57:35;15.66;52.91
76785;SHT30;66893;44.316;0.092;2023-02-01T13:02:54;15.79;52.77
76785;SHT30;66893;44.316;0.092;2023-02-01T13:05:58;15.90;52.67
76785;SHT30;66893;44.316;0.092;2023-02-01T13:08:22;16.00;52.55
76785;SHT30;66893;44.316;0.092;2023-02-01T13:11:00;16.09;52.43
76785;SHT30;66893;44.316;0.092;2023-02-01T13:18:37;16.42;52.07
76785;SHT30;66893;44.316;0.092;2023-02-01T13:21:16;16.55;51.95
76785;SHT30;66893;44.316;0.092;2023-02-01T13:23:45;16.68;51.85
76785;SHT30;66893;44.316;0.092;2023-02-01T13:26:11;16.76;51.61
76785;SHT30;66893;44.316;0.092;2023-02-01T13:28:41;16.80;51.03
76785;SHT30;66893;44.316;0.092;2023-02-01T13:42:24;17.13;49.72
76785;SHT30;66893;44.316;0.092;2023-02-01T13:44:56;17.23;49.16
76785;SHT30;66893;44.316;0.092;2023-02-01T13:49:53;18.84;48.82
76785;SHT30;66893;44.316;0.092;2023-02-01T13:52:38;20.36;46.85
76785;SHT30;66893;44.316;0.092;2023-02-01T13:55:24;22.10;44.98
76785;SHT30;66893;44.316;0.092;2023-02-01T13:57:57;23.60;43.24
76785;SHT30;66893;44.316;0.092;2023-02-01T14:10:48;27.69;38.39
76785;SHT30;66893;44.316;0.092;2023-02-01T14:13:24;26.83;38.75
76785;SHT30;66893;44.316;0.092;2023-02-01T14:21:25;24.49;40.11
76785;SHT30;66893;44.316;0.092;2023-02-01T14:24:12;23.85;40.60
76785;SHT30;66893;44.316;0.092;2023-02-01T14:26:50;23.43;41.04
76785;SHT30;66893;44.316;0.092;2023-02-01T14:34:55;22.26;41.96
76785;SHT30;66893;44.316;0.092;2023-02-01T14:50:33;20.58;43.22
76785;SHT30;66893;44.316;0.092;2023-02-01T14:55:44;20.24;43.57
76785;SHT30;66893;44.316;0.092;2023-02-01T15:09:25;19.65;44.20
76785;SHT30;66893;44.316;0.092;2023-02-01T15:12:00;19.58;44.28
76785;SHT30;66893;44.316;0.092;2023-02-01T15:14:28;19.47;44.38
76785;SHT30;66893;44.316;0.092;2023-02-01T15:16:54;19.41;44.55
76785;SHT30;66893;44.316;0.092;2023-02-01T15:19:25;19.34;44.62
76785;SHT30;66893;44.316;0.092;2023-02-01T15:21:58;19.26;44.68
76785;SHT30;66893;44.316;0.092;2023-02-01T15:24:28;19.22;44.81
76785;SHT30;66893;44.316;0.092;2023-02-01T15:26:55;19.14;44.91
76785;SHT30;66893;44.316;0.092;2023-02-01T15:29:22;19.07;45.05
76785;SHT30;66893;44.316;0.092;2023-02-01T15:31:51;18.99;45.18
76785;SHT30;66893;44.316;0.092;2023-02-01T15:34:18;18.94;45.21
76785;SHT30;66893;44.316;0.092;2023-02-01T15:36:44;18.86;45.28
76785;SHT30;66893;44.316;0.092;2023-02-01T15:41:50;18.73;45.41
76785;SHT30;66893;44.316;0.092;2023-02-01T15:44:33;18.67;45.52
76785;SHT30;66893;44.316;0.092;2023-02-01T15:47:05;18.59;45.62
76785;SHT30;66893;44.316;0.092;2023-02-01T15:49:42;18.54;45.69
76785;SHT30;66893;44.316;0.092;2023-02-01T15:52:20;18.48;45.76
76785;SHT30;66893;44.316;0.092;2023-02-01T15:54:49;18.41;45.79
76785;SHT30;66893;44.316;0.092;2023-02-01T15:57:36;18.43;45.92
76785;SHT30;66893;44.316;0.092;2023-02-01T16:00:18;18.36;45.97
76785;SHT30;66893;44.316;0.092;2023-02-01T16:02:57;18.31;45.99
76785;SHT30;66893;44.316;0.092;2023-02-01T16:05:33;18.27;46.08
76785;SHT30;66893;44.316;0.092;2023-02-01T16:10:45;18.22;46.21
76785;SHT30;66893;44.316;0.092;2023-02-01T16:13:12;18.18;46.23
76785;SHT30;66893;44.316;0.092;2023-02-01T16:15:38;18.17;46.28
76785;SHT30;66893;44.316;0.092;2023-02-01T16:18:04;18.14;46.29
76785;SHT30;66893;44.316;0.092;2023-02-01T16:20:29;18.12;46.36
76785;SHT30;66893;44.316;0.092;2023-02-01T16:22:56;18.10;46.38
76785;SHT30;66893;44.316;0.092;2023-02-01T16:25:21;18.06;46.39
76785;SHT30;66893;44.316;0.092;2023-02-01T16:27:46;18.02;46.45
76785;SHT30;66893;44.316;0.092;2023-02-01T16:30:12;17.99;46.55
76785;SHT30;66893;44.316;0.092;2023-02-01T16:32:38;17.93;46.58
76785;SHT30;66893;44.316;0.092;2023-02-01T16:35:25;17.87;46.62
76785;SHT30;66893;44.316;0.092;2023-02-01T16:37:50;17.82;46.69
76785;SHT30;66893;44.316;0.092;2023-02-01T16:40:18;17.79;46.76
76785;SHT30;66893;44.316;0.092;2023-02-01T16:42:45;17.74;46.88
76785;SHT30;66893;44.316;0.092;2023-02-01T16:45:11;17.68;46.96
76785;SHT30;66893;44.316;0.092;2023-02-01T16:47:38;17.67;47.02
76785;SHT30;66893;44.316;0.092;2023-02-01T16:50:05;17.61;47.14
76785;SHT30;66893;44.316;0.092;2023-02-01T16:52:39;17.57;47.11
76785;SHT30;66893;44.316;0.092;2023-02-01T16:55:13;17.52;47.16
76785;SHT30;66893;44.316;0.092;2023-02-01T16:57:39;17.50;47.25
76785;SHT30;66893;44.316;0.092;2023-02-01T17:00:06;17.45;47.32
76785;SHT30;66893;44.316;0.092;2023-02-01T17:02:31;17.38;47.41
76785;SHT30;66893;44.316;0.092;2023-02-01T17:04:57;17.35;47.46
76785;SHT30;66893;44.316;0.092;2023-02-01T17:07:22;17.30;47.52
76785;SHT30;66893;44.316;0.092;2023-02-01T17:09:48;17.27;47.56
76785;SHT30;66893;44.316;0.092;2023-02-01T17:12:30;17.23;47.58
76785;SHT30;66893;44.316;0.092;2023-02-01T17:14:57;17.17;47.67
76785;SHT30;66893;44.316;0.092;2023-02-01T17:17:24;17.13;47.72
76785;SHT30;66893;44.316;0.092;2023-02-01T17:19:51;17.10;47.65
76785;SHT30;66893;44.316;0.092;2023-02-01T17:22:22;17.03;47.74
76785;SHT30;66893;44.316;0.092;2023-02-01T17:24:47;16.99;47.77
76785;SHT30;66893;44.316;0.092;2023-02-01T17:27:13;16.96;47.79
76785;SHT30;66893;44.316;0.092;2023-02-01T17:29:39;16.95;47.85
76785;SHT30;66893;44.316;0.092;2023-02-01T17:32:23;16.90;47.88
76785;SHT30;66893;44.316;0.092;2023-02-01T17:34:50;16.87;47.92
76785;SHT30;66893;44.316;0.092;2023-02-01T17:37:28;16.86;47.98
76785;SHT30;66893;44.316;0.092;2023-02-01T17:39:55;16.85;47.98
76785;SHT30;66893;44.316;0.092;2023-02-01T17:42:21;16.82;48.03
76785;SHT30;66893;44.316;0.092;2023-02-01T17:44:54;16.79;48.10
76785;SHT30;66893;44.316;0.092;2023-02-01T17:47:20;16.79;48.15
76785;SHT30;66893;44.316;0.092;2023-02-01T17:49:46;16.73;48.15
76785;SHT30;66893;44.316;0.092;2023-02-01T17:52:16;16.73;48.20
76785;SHT30;66893;44.316;0.092;2023-02-01T17:54:43;16.69;48.27
76785;SHT30;66893;44.316;0.092;2023-02-01T17:57:12;16.66;48.28
76785;SHT30;66893;44.316;0.092;2023-02-01T17:59:38;16.68;48.28
76785;SHT30;66893;44.316;0.092;2023-02-01T18:04:43;16.59;48.30
76785;SHT30;66893;44.316;0.092;2023-02-01T18:07:08;16.57;48.25
76785;SHT30;66893;44.316;0.092;2023-02-01T18:09:34;16.51;48.18
76785;SHT30;66893;44.316;0.092;2023-02-01T18:12:03;16.47;48.27
76785;SHT30;66893;44.316;0.092;2023-02-01T18:14:29;16.44;48.32
76785;SHT30;66893;44.316;0.092;2023-02-01T18:16:54;16.44;48.41
76785;SHT30;66893;44.316;0.092;2023-02-01T18:19:20;16.42;48.43
76785;SHT30;66893;44.316;0.092;2023-02-01T18:21:45;16.41;48.47
76785;SHT30;66893;44.316;0.092;2023-02-01T18:24:12;16.45;48.50
76785;SHT30;66893;44.316;0.092;2023-02-01T18:26:38;16.45;48.53
76785;SHT30;66893;44.316;0.092;2023-02-01T18:29:04;16.44;48.50
76785;SHT30;66893;44.316;0.092;2023-02-01T18:31:31;16.40;48.54